Airfield :
LOGIN :

Register | Disclaimer

   EN    FR    IT 

 










Legend :    VFR   Marginal VFR   IFR   Intensive IFR   Very Intensive IFR
Visi :
Ceiling :
>= 8 km
>= 3000ft
5 to 8 km
1000 to 3000 ft
1500m to 5 km
500 to 1000 ft
800 to 1500m
200 to 500 ft
< 800m
< 200 ft
Symbols :   Thunderstorms  Fog  Heavy snow  Heavy precipitations  Wind > 20 kt
SIGMETs :     Misc.  Thunderstorms  Icing  Turbulence  Mountain Waves  Volcanic Ashes







- Airport Elevation : 242 ft
- IATA code : DUB


EIDW - Dublin

CURRENT METAR :
  • 150430Z 14021G33KT 7000 -RA SCT006 SCT008 BKN010 06/05 Q1004 NOSIG

EXPIRED METARs :
  • 150400Z 15020G33KT 8000 -RA FEW005 BKN007 OVC012 06/05 Q1006 NOSIG
  • 150330Z 15020G33KT 110V170 9000 -RA FEW005 BKN007 OVC011 06/05 Q1007 NOSIG
  • 150300Z 14020G30KT 9000 -RA SCT005 BKN007 OVC009 06/05 Q1007 NOSIG
  • 150230Z 14019G32KT 8000 -RA SCT004 BKN007 OVC011 06/05 Q1007 NOSIG
  • 150200Z 15022G35KT 7000 -RA SCT005 SCT008 BKN010 06/05 Q1007 NOSIG

TAF COR TAF EIDW
Valid from the 15 at 00:00 until the 16 at 00:00 UTC


142345Z 1500/1524 14025G40KT 9999 -RA SCT007 BKN010
TEMPO 1500/1501 BKN006
TEMPO 1501/1515 4000 RADZ BKN005
TEMPO 1503/1513 15028G45KT
BECMG 1515/1517 17016G28KT
TEMPO 1515/1517 2000 RADZ BKN003
BECMG 1517/1519 26033G56KT BKN020
TEMPO 1518/1520 4000 RA
BECMG 1521/1523 24023G36KT
No reported NOTAMs for that airfield.



MET'MAP, your aeronautical weather chart ! - Copyright ORBIFLY December 2007 - Disclaimer

ORBIFLY MET'MAP TEAM :

Programming & Development : Alexandra Zaïnal
Concept & Development : Baudouin d'Aumeries
Co-Development & Prog : Marc-Olivier Méhu
Technical & hardware support : Manuel Goepfert

Contact : metmap@orbifly.com




SOURCES & CREDITS :

   NOAA